Wetterstation Vordersexau
Wetterdaten: Woche 20.06.16 - 26.06.16 (KW25)
Datum Zeit Temp. A. Feuchte A. Luftdruck Regen Wind Richtung Taupunkt Windchill Windben
20.06.2016 00:00 9,6 C 84 % 1022,4 hPa 0,0 l/m 0,0 km/h N-NO 7,0 C 9,6 C 0,0 km/h
20.06.2016 01:00 9,3 C 85 % 1022,5 hPa 0,0 l/m 0,0 km/h SO 6,9 C 9,3 C 0,0 km/h
20.06.2016 02:00 8,9 C 85 % 1022,2 hPa 0,0 l/m 2,6 km/h SO 6,5 C 8,9 C 1,4 km/h
20.06.2016 03:00 8,6 C 86 % 1022,0 hPa 0,0 l/m 0,0 km/h NO 6,4 C 8,6 C 0,0 km/h
20.06.2016 04:00 8,3 C 86 % 1021,8 hPa 0,0 l/m 0,0 km/h SO 6,1 C 8,3 C 0,0 km/h
20.06.2016 05:00 7,9 C 86 % 1021,7 hPa 0,0 l/m 0,0 km/h SO 5,7 C 7,9 C 0,0 km/h
20.06.2016 06:00 8,5 C 86 % 1022,0 hPa 0,0 l/m 0,0 km/h SO 6,3 C 8,5 C 0,0 km/h
20.06.2016 07:00 12,0 C 83 % 1022,0 hPa 0,0 l/m 0,0 km/h N-NO 9,2 C 12,0 C 0,0 km/h
20.06.2016 08:00 21,8 C 67 % 1021,7 hPa 0,0 l/m 0,0 km/h W-SW 15,4 C 21,8 C 0,0 km/h
20.06.2016 09:00 22,9 C 56 % 1021,3 hPa 0,0 l/m 0,0 km/h W-NW 13,6 C 22,9 C 0,0 km/h
20.06.2016 10:00 23,8 C 53 % 1021,0 hPa 0,0 l/m 9,7 km/h SW 13,6 C 22,9 C 5,4 km/h
20.06.2016 11:00 22,8 C 57 % 1020,7 hPa 0,0 l/m 0,0 km/h W-NW 13,8 C 22,8 C 0,0 km/h
20.06.2016 12:00 23,3 C 55 % 1020,0 hPa 0,0 l/m 0,0 km/h N-NW 13,7 C 23,3 C 0,0 km/h
20.06.2016 13:00 23,5 C 55 % 1019,3 hPa 0,0 l/m 0,0 km/h S-SW 13,9 C 23,5 C 0,0 km/h
20.06.2016 14:00 23,9 C 55 % 1018,7 hPa 0,0 l/m 7,8 km/h W 14,3 C 23,5 C 4,3 km/h
20.06.2016 15:00 25,3 C 50 % 1018,2 hPa 0,0 l/m 13,6 km/h S-SW 14,1 C 23,9 C 7,6 km/h
20.06.2016 16:00 26,4 C 46 % 1017,4 hPa 0,0 l/m 7,8 km/h W-SW 13,8 C 26,1 C 4,3 km/h
20.06.2016 17:00 24,0 C 47 % 1017,1 hPa 0,0 l/m 13,6 km/h SW 12,0 C 22,3 C 7,6 km/h
20.06.2016 18:00 21,8 C 57 % 1017,0 hPa 0,0 l/m 0,0 km/h W-SW 12,9 C 21,8 C 0,0 km/h
20.06.2016 19:00 19,9 C 62 % 1016,9 hPa 0,0 l/m 4,5 km/h W-SW 12,4 C 19,9 C 2,5 km/h
20.06.2016 20:00 19,3 C 62 % 1016,9 hPa 0,0 l/m 3,2 km/h S-SW 11,8 C 19,3 C 1,8 km/h
20.06.2016 21:00 18,3 C 62 % 1017,1 hPa 0,0 l/m 16,8 km/h SW 10,9 C 14,7 C 9,4 km/h
20.06.2016 22:00 17,6 C 65 % 1018,3 hPa 0,0 l/m 0,0 km/h SW 10,9 C 17,6 C 0,0 km/h
20.06.2016 23:00 15,4 C 75 % 1018,7 hPa 0,0 l/m 0,0 km/h S-SO 11,0 C 15,4 C 0,0 km/h
21.06.2016 00:00 14,2 C 81 % 1019,4 hPa 0,4 l/m 14,9 km/h S-SO 11,0 C 10,3 C 8,3 km/h
21.06.2016 01:00 13,7 C 85 % 1019,1 hPa 0,8 l/m 16,2 km/h S 11,2 C 9,2 C 9,0 km/h
21.06.2016 02:00 13,6 C 85 % 1019,1 hPa 0,4 l/m 0,0 km/h S 11,1 C 13,6 C 0,0 km/h
21.06.2016 03:00 13,8 C 85 % 1018,8 hPa 1,2 l/m 2,6 km/h SO 11,3 C 13,8 C 1,4 km/h
21.06.2016 04:00 14,0 C 85 % 1018,5 hPa 0,8 l/m 0,0 km/h SO 11,5 C 14,0 C 0,0 km/h
21.06.2016 05:00 14,4 C 85 % 1018,8 hPa 0,0 l/m 0,0 km/h SO 11,9 C 14,4 C 0,0 km/h
21.06.2016 06:00 15,0 C 85 % 1019,1 hPa 0,0 l/m 0,0 km/h S-SW 12,5 C 15,0 C 0,0 km/h
21.06.2016 07:00 15,9 C 85 % 1019,2 hPa 0,0 l/m 5,8 km/h SO 13,4 C 15,9 C 3,2 km/h
21.06.2016 08:00 17,1 C 85 % 1019,6 hPa 0,0 l/m 0,0 km/h W 14,6 C 17,1 C 0,0 km/h
21.06.2016 09:00 19,7 C 81 % 1019,4 hPa 0,0 l/m 4,5 km/h S-SW 16,3 C 19,7 C 2,5 km/h
21.06.2016 10:00 21,0 C 75 % 1019,7 hPa 0,0 l/m 24,0 km/h S 16,4 C 16,9 C 13,3 km/h
21.06.2016 11:00 22,4 C 71 % 1019,7 hPa 0,0 l/m 11,7 km/h SW 16,9 C 20,9 C 6,5 km/h
21.06.2016 12:00 22,1 C 69 % 1019,9 hPa 0,0 l/m 17,5 km/h W-NW 16,1 C 19,3 C 9,7 km/h
21.06.2016 13:00 24,6 C 65 % 1019,6 hPa 0,0 l/m 33,7 km/h W-SW 17,6 C 20,9 C 18,7 km/h
21.06.2016 14:00 24,2 C 64 % 1019,6 hPa 0,0 l/m 18,1 km/h W-SW 16,9 C 21,9 C 10,1 km/h
21.06.2016 15:00 22,2 C 70 % 1019,9 hPa 0,0 l/m 22,7 km/h S-SW 16,5 C 18,7 C 12,6 km/h
21.06.2016 16:00 22,4 C 68 % 1020,1 hPa 0,0 l/m 22,0 km/h W-SW 16,2 C 19,0 C 12,2 km/h
21.06.2016 17:00 23,1 C 69 % 1020,0 hPa 0,0 l/m 12,3 km/h W 17,1 C 21,5 C 6,8 km/h
21.06.2016 18:00 24,9 C 63 % 1019,7 hPa 0,0 l/m 8,4 km/h W 17,4 C 24,4 C 4,7 km/h
21.06.2016 19:00 23,1 C 64 % 1019,7 hPa 0,0 l/m 9,1 km/h W-SW 15,9 C 22,3 C 5,0 km/h
21.06.2016 20:00 21,3 C 71 % 1019,7 hPa 0,0 l/m 7,8 km/h W-SW 15,8 C 20,8 C 4,3 km/h
21.06.2016 21:00 19,6 C 75 % 1020,1 hPa 0,0 l/m 0,0 km/h S 15,0 C 19,6 C 0,0 km/h
21.06.2016 22:00 18,3 C 80 % 1020,5 hPa 0,0 l/m 0,0 km/h SO 14,8 C 18,3 C 0,0 km/h
21.06.2016 23:00 17,8 C 83 % 1020,8 hPa 0,0 l/m 0,0 km/h O-SO 14,9 C 17,8 C 0,0 km/h
22.06.2016 00:00 16,2 C 84 % 1020,9 hPa 0,0 l/m 0,0 km/h O-SO 13,5 C 16,2 C 0,0 km/h
22.06.2016 01:00 16,4 C 85 % 1021,2 hPa 0,0 l/m 0,0 km/h SO 13,9 C 16,4 C 0,0 km/h
22.06.2016 02:00 15,6 C 85 % 1021,1 hPa 0,0 l/m 0,0 km/h SO 13,1 C 15,6 C 0,0 km/h
22.06.2016 03:00 14,8 C 85 % 1021,3 hPa 0,0 l/m 0,0 km/h SO 12,3 C 14,8 C 0,0 km/h
22.06.2016 04:00 14,6 C 85 % 1021,3 hPa 0,0 l/m 0,0 km/h SO 12,1 C 14,6 C 0,0 km/h
22.06.2016 05:00 14,5 C 84 % 1021,3 hPa 0,0 l/m 0,0 km/h O-SO 11,8 C 14,5 C 0,0 km/h
22.06.2016 06:00 16,1 C 84 % 1021,4 hPa 0,0 l/m 1,9 km/h SO 13,4 C 16,1 C 1,1 km/h
22.06.2016 07:00 17,8 C 85 % 1021,3 hPa 0,0 l/m 0,0 km/h SO 15,2 C 17,8 C 0,0 km/h
22.06.2016 08:00 20,5 C 83 % 1021,5 hPa 0,0 l/m 0,0 km/h SO 17,5 C 20,5 C 0,0 km/h
22.06.2016 09:00 26,8 C 70 % 1021,2 hPa 0,0 l/m 0,0 km/h W 20,9 C 26,8 C 0,0 km/h
22.06.2016 10:00 30,2 C 51 % 1020,9 hPa 0,0 l/m 2,6 km/h NW 18,9 C 30,2 C 1,4 km/h
22.06.2016 11:00 29,2 C 50 % 1020,7 hPa 0,0 l/m 0,0 km/h W 17,7 C 29,2 C 0,0 km/h
22.06.2016 12:00 28,8 C 53 % 1020,3 hPa 0,0 l/m 1,9 km/h W 18,2 C 28,8 C 1,1 km/h
22.06.2016 13:00 30,2 C 52 % 1019,8 hPa 0,0 l/m 0,0 km/h W-NW 19,2 C 30,2 C 0,0 km/h
22.06.2016 14:00 31,5 C 51 % 1019,5 hPa 0,0 l/m 1,9 km/h W-SW 20,1 C 31,5 C 1,1 km/h
22.06.2016 15:00 30,9 C 53 % 1019,1 hPa 0,0 l/m 6,5 km/h W-NW 20,2 C 30,9 C 3,6 km/h
22.06.2016 16:00 33,1 C 50 % 1018,9 hPa 0,0 l/m 0,0 km/h W 21,2 C 33,1 C 0,0 km/h
22.06.2016 17:00 35,8 C 43 % 1018,3 hPa 0,0 l/m 0,0 km/h W-NW 21,2 C 35,8 C 0,0 km/h
22.06.2016 18:00 35,7 C 43 % 1018,1 hPa 0,0 l/m 0,0 km/h N-NO 21,1 C 35,7 C 0,0 km/h
22.06.2016 19:00 29,8 C 53 % 1018,2 hPa 0,0 l/m 1,3 km/h N 19,2 C 29,8 C 0,7 km/h
22.06.2016 20:00 26,4 C 64 % 1018,3 hPa 0,0 l/m 0,0 km/h N 19,0 C 26,4 C 0,0 km/h
22.06.2016 21:00 23,3 C 72 % 1018,3 hPa 0,0 l/m 0,0 km/h N-NO 18,0 C 23,3 C 0,0 km/h
22.06.2016 22:00 20,9 C 79 % 1018,4 hPa 0,0 l/m 0,0 km/h O 17,1 C 20,9 C 0,0 km/h
22.06.2016 23:00 19,8 C 83 % 1018,4 hPa 0,0 l/m 0,0 km/h O 16,8 C 19,8 C 0,0 km/h
23.06.2016 00:00 18,6 C 84 % 1018,8 hPa 0,0 l/m 0,0 km/h O 15,8 C 18,6 C 0,0 km/h
23.06.2016 01:00 17,8 C 85 % 1018,8 hPa 0,0 l/m 0,0 km/h O 15,2 C 17,8 C 0,0 km/h
23.06.2016 02:00 17,5 C 85 % 1018,1 hPa 0,0 l/m 0,0 km/h O-NO 14,9 C 17,5 C 0,0 km/h
23.06.2016 03:00 16,6 C 85 % 1017,9 hPa 0,0 l/m 0,0 km/h N-NO 14,1 C 16,6 C 0,0 km/h
23.06.2016 04:00 15,9 C 84 % 1017,8 hPa 0,0 l/m 0,0 km/h O 13,2 C 15,9 C 0,0 km/h
23.06.2016 05:00 15,5 C 84 % 1017,8 hPa 0,0 l/m 0,0 km/h O-SO 12,8 C 15,5 C 0,0 km/h
23.06.2016 06:00 16,2 C 83 % 1018,1 hPa 0,0 l/m 0,0 km/h SO 13,3 C 16,2 C 0,0 km/h
23.06.2016 07:00 18,8 C 81 % 1018,2 hPa 0,0 l/m 0,0 km/h SO 15,5 C 18,8 C 0,0 km/h
23.06.2016 08:00 30,6 C 64 % 1018,3 hPa 0,0 l/m 0,0 km/h W-SW 23,0 C 30,6 C 0,0 km/h
23.06.2016 09:00 32,1 C 55 % 1018,4 hPa 0,0 l/m 0,0 km/h S 21,9 C 32,1 C 0,0 km/h
23.06.2016 10:00 32,8 C 53 % 1017,9 hPa 0,0 l/m 0,0 km/h W 21,9 C 32,8 C 0,0 km/h
23.06.2016 11:00 31,8 C 54 % 1017,7 hPa 0,0 l/m 8,4 km/h W 21,3 C 31,7 C 4,7 km/h
23.06.2016 12:00 32,2 C 57 % 1017,5 hPa 0,0 l/m 2,6 km/h W-NW 22,6 C 32,2 C 1,4 km/h
23.06.2016 13:00 33,6 C 53 % 1016,7 hPa 0,0 l/m 0,0 km/h W 22,7 C 33,6 C 0,0 km/h
23.06.2016 14:00 36,1 C 48 % 1016,4 hPa 0,0 l/m 0,0 km/h S 23,3 C 36,1 C 0,0 km/h
23.06.2016 15:00 35,8 C 46 % 1016,0 hPa 0,0 l/m 0,0 km/h S-SO 22,3 C 35,8 C 0,0 km/h
23.06.2016 16:00 38,5 C 40 % 1015,1 hPa 0,0 l/m 3,2 km/h W 22,4 C 38,5 C 1,8 km/h
23.06.2016 17:00 42,4 C 31 % 1014,4 hPa 0,0 l/m 0,0 km/h N 21,7 C 42,4 C 0,0 km/h
23.06.2016 18:00 41,5 C 30 % 1014,2 hPa 0,0 l/m 0,0 km/h N 20,3 C 41,5 C 0,0 km/h
23.06.2016 19:00 34,3 C 40 % 1013,9 hPa 0,0 l/m 0,0 km/h N 18,7 C 34,3 C 0,0 km/h
23.06.2016 20:00 29,0 C 58 % 1013,7 hPa 0,0 l/m 0,0 km/h N-NO 19,9 C 29,0 C 0,0 km/h
23.06.2016 21:00 25,5 C 67 % 1013,9 hPa 0,0 l/m 0,0 km/h O-SO 18,9 C 25,5 C 0,0 km/h
23.06.2016 22:00 22,8 C 74 % 1014,1 hPa 0,0 l/m 0,0 km/h NO 17,9 C 22,8 C 0,0 km/h
23.06.2016 23:00 21,8 C 78 % 1014,4 hPa 0,0 l/m 0,0 km/h O-SO 17,8 C 21,8 C 0,0 km/h
24.06.2016 00:00 20,3 C 81 % 1014,9 hPa 0,0 l/m 0,0 km/h O 16,9 C 20,3 C 0,0 km/h
24.06.2016 01:00 19,9 C 83 % 1015,3 hPa 0,0 l/m 0,0 km/h O-SO 16,9 C 19,9 C 0,0 km/h
24.06.2016 02:00 19,4 C 84 % 1015,2 hPa 0,0 l/m 0,0 km/h SO 16,6 C 19,4 C 0,0 km/h
24.06.2016 03:00 19,2 C 84 % 1015,2 hPa 0,0 l/m 0,0 km/h O-SO 16,4 C 19,2 C 0,0 km/h
24.06.2016 04:00 19,1 C 84 % 1015,1 hPa 0,0 l/m 0,0 km/h SO 16,3 C 19,1 C 0,0 km/h
24.06.2016 05:00 18,3 C 84 % 1015,1 hPa 0,0 l/m 0,0 km/h O-NO 15,5 C 18,3 C 0,0 km/h
24.06.2016 06:00 19,4 C 84 % 1015,1 hPa 0,0 l/m 0,0 km/h O-SO 16,6 C 19,4 C 0,0 km/h
24.06.2016 07:00 24,1 C 79 % 1015,3 hPa 0,0 l/m 3,2 km/h SW 20,2 C 24,1 C 1,8 km/h
24.06.2016 08:00 31,8 C 47 % 1015,5 hPa 0,0 l/m 10,4 km/h SW 19,1 C 31,7 C 5,8 km/h
24.06.2016 09:00 32,2 C 41 % 1015,6 hPa 0,0 l/m 16,8 km/h W-NW 17,2 C 32,0 C 9,4 km/h
24.06.2016 10:00 31,8 C 43 % 1015,2 hPa 0,0 l/m 22,0 km/h W 17,6 C 31,4 C 12,2 km/h
24.06.2016 11:00 31,6 C 47 % 1015,1 hPa 0,0 l/m 20,1 km/h SW 18,9 C 31,2 C 11,2 km/h
24.06.2016 12:00 31,6 C 47 % 1014,9 hPa 0,0 l/m 13,0 km/h W 18,9 C 31,4 C 7,2 km/h
24.06.2016 13:00 32,6 C 46 % 1014,7 hPa 0,0 l/m 1,9 km/h W 19,4 C 32,6 C 1,1 km/h
24.06.2016 14:00 34,2 C 42 % 1013,6 hPa 0,0 l/m 4,5 km/h W 19,4 C 34,2 C 2,5 km/h
24.06.2016 15:00 34,9 C 40 % 1013,0 hPa 0,0 l/m 1,9 km/h W 19,3 C 34,9 C 1,1 km/h
24.06.2016 16:00 35,6 C 41 % 1012,5 hPa 0,0 l/m 6,5 km/h W-SW 20,3 C 35,6 C 3,6 km/h
24.06.2016 17:00 38,4 C 37 % 1012,1 hPa 0,0 l/m 3,2 km/h N 21,1 C 38,4 C 1,8 km/h
24.06.2016 18:00 35,6 C 46 % 1012,0 hPa 0,0 l/m 0,0 km/h N-NO 22,2 C 35,6 C 0,0 km/h
24.06.2016 19:00 28,9 C 56 % 1012,7 hPa 0,0 l/m 16,2 km/h N-NO 19,2 C 27,9 C 9,0 km/h
24.06.2016 20:00 26,4 C 60 % 1012,7 hPa 0,0 l/m 0,0 km/h O-NO 18,0 C 26,4 C 0,0 km/h
24.06.2016 21:00 24,2 C 68 % 1012,8 hPa 0,0 l/m 0,0 km/h NO 17,9 C 24,2 C 0,0 km/h
24.06.2016 22:00 22,8 C 73 % 1012,6 hPa 0,0 l/m 0,0 km/h N-NO 17,7 C 22,8 C 0,0 km/h
24.06.2016 23:00 22,1 C 77 % 1013,2 hPa 0,0 l/m 0,0 km/h S 17,9 C 22,1 C 0,0 km/h
25.06.2016 00:00 20,4 C 81 % 1013,5 hPa 7,5 l/m 1,3 km/h SO 17,0 C 20,4 C 0,7 km/h
25.06.2016 01:00 17,9 C 83 % 1013,1 hPa 11,2 l/m 0,0 km/h O-SO 15,0 C 17,9 C 0,0 km/h
25.06.2016 02:00 18,8 C 83 % 1011,6 hPa 0,8 l/m 0,0 km/h SW 15,8 C 18,8 C 0,0 km/h
25.06.2016 03:00 18,4 C 81 % 1012,1 hPa 1,7 l/m 0,0 km/h SW 15,1 C 18,4 C 0,0 km/h
25.06.2016 04:00 18,4 C 81 % 1012,7 hPa 0,8 l/m 0,0 km/h SO 15,1 C 18,4 C 0,0 km/h
25.06.2016 05:00 18,4 C 79 % 1012,3 hPa 1,2 l/m 0,0 km/h SO 14,7 C 18,4 C 0,0 km/h
25.06.2016 06:00 18,8 C 79 % 1011,6 hPa 0,0 l/m 0,0 km/h S 15,1 C 18,8 C 0,0 km/h
25.06.2016 07:00 20,0 C 79 % 1011,5 hPa 0,0 l/m 0,0 km/h S-SW 16,2 C 20,0 C 0,0 km/h
25.06.2016 08:00 21,9 C 83 % 1012,0 hPa 0,0 l/m 18,1 km/h W-SW 18,9 C 19,0 C 10,1 km/h
25.06.2016 09:00 22,1 C 82 % 1011,5 hPa 0,0 l/m 2,6 km/h W-SW 18,9 C 22,1 C 1,4 km/h
25.06.2016 10:00 22,3 C 80 % 1011,3 hPa 0,0 l/m 0,0 km/h S-SW 18,7 C 22,3 C 0,0 km/h
25.06.2016 11:00 25,1 C 73 % 1011,3 hPa 0,0 l/m 7,8 km/h S-SO 19,9 C 24,8 C 4,3 km/h
25.06.2016 12:00 26,9 C 64 % 1011,2 hPa 0,0 l/m 8,4 km/h W-SW 19,5 C 26,5 C 4,7 km/h
25.06.2016 13:00 27,3 C 58 % 1010,4 hPa 0,0 l/m 0,0 km/h W-SW 18,3 C 27,3 C 0,0 km/h
25.06.2016 14:00 24,9 C 65 % 1010,8 hPa 0,0 l/m 22,7 km/h S 17,9 C 22,2 C 12,6 km/h
25.06.2016 15:00 19,3 C 78 % 1013,6 hPa 0,0 l/m 0,0 km/h SO 15,4 C 19,3 C 0,0 km/h
25.06.2016 16:00 21,4 C 76 % 1013,5 hPa 0,0 l/m 0,0 km/h W 17,0 C 21,4 C 0,0 km/h
25.06.2016 17:00 22,7 C 72 % 1013,1 hPa 0,0 l/m 1,3 km/h W 17,4 C 22,7 C 0,7 km/h
25.06.2016 18:00 22,9 C 69 % 1013,1 hPa 0,0 l/m 0,0 km/h N 16,9 C 22,9 C 0,0 km/h
25.06.2016 19:00 19,8 C 74 % 1014,0 hPa 0,0 l/m 0,0 km/h W-NW 15,0 C 19,8 C 0,0 km/h
25.06.2016 20:00 18,0 C 81 % 1014,9 hPa 0,0 l/m 1,9 km/h N 14,7 C 18,0 C 1,1 km/h
25.06.2016 21:00 17,1 C 82 % 1015,6 hPa 0,0 l/m 0,0 km/h N 14,0 C 17,1 C 0,0 km/h
25.06.2016 22:00 16,5 C 83 % 1016,6 hPa 0,0 l/m 0,0 km/h N-NO 13,6 C 16,5 C 0,0 km/h
25.06.2016 23:00 15,6 C 84 % 1017,1 hPa 0,0 l/m 0,0 km/h N-NO 12,9 C 15,6 C 0,0 km/h
26.06.2016 00:00 14,6 C 85 % 1017,0 hPa 0,0 l/m 0,0 km/h N-NO 12,1 C 14,6 C 0,0 km/h
26.06.2016 01:00 13,1 C 85 % 1016,6 hPa 0,0 l/m 0,0 km/h NO 10,6 C 13,1 C 0,0 km/h
26.06.2016 02:00 12,3 C 85 % 1016,4 hPa 0,0 l/m 0,0 km/h NO 9,9 C 12,3 C 0,0 km/h
26.06.2016 03:00 12,1 C 85 % 1016,4 hPa 0,0 l/m 0,0 km/h SO 9,7 C 12,1 C 0,0 km/h
26.06.2016 04:00 11,3 C 85 % 1016,5 hPa 0,0 l/m 0,0 km/h SO 8,9 C 11,3 C 0,0 km/h
26.06.2016 05:00 10,4 C 85 % 1016,7 hPa 0,4 l/m 0,0 km/h SO 8,0 C 10,4 C 0,0 km/h
26.06.2016 06:00 11,1 C 84 % 1016,8 hPa 0,0 l/m 0,0 km/h SO 8,5 C 11,1 C 0,0 km/h
26.06.2016 07:00 13,5 C 81 % 1016,7 hPa 0,0 l/m 2,6 km/h SO 10,3 C 13,5 C 1,4 km/h
26.06.2016 08:00 23,1 C 74 % 1017,0 hPa 0,0 l/m 0,0 km/h SO 18,2 C 23,1 C 0,0 km/h
26.06.2016 09:00 24,6 C 57 % 1017,1 hPa 0,0 l/m 0,0 km/h W 15,5 C 24,6 C 0,0 km/h
26.06.2016 10:00 24,4 C 54 % 1017,1 hPa 0,0 l/m 1,3 km/h N-NW 14,5 C 24,4 C 0,7 km/h
26.06.2016 11:00 25,0 C 53 % 1016,7 hPa 0,0 l/m 0,0 km/h N 14,7 C 25,0 C 0,0 km/h
26.06.2016 12:00 25,1 C 47 % 1016,5 hPa 0,0 l/m 0,0 km/h NW 13,0 C 25,1 C 0,0 km/h
26.06.2016 13:00 24,6 C 51 % 1016,4 hPa 0,0 l/m 0,0 km/h W 13,8 C 24,6 C 0,0 km/h
26.06.2016 14:00 24,1 C 48 % 1015,9 hPa 0,0 l/m 1,9 km/h W-NW 12,4 C 24,1 C 1,1 km/h
26.06.2016 15:00 24,8 C 47 % 1015,8 hPa 0,0 l/m 0,0 km/h NW 12,7 C 24,8 C 0,0 km/h
26.06.2016 16:00 24,8 C 48 % 1015,6 hPa 0,0 l/m 1,9 km/h N 13,0 C 24,8 C 1,1 km/h
26.06.2016 17:00 29,9 C 40 % 1015,6 hPa 0,0 l/m 13,0 km/h W-SW 14,8 C 29,4 C 7,2 km/h
26.06.2016 18:00 28,2 C 40 % 1015,6 hPa 0,0 l/m 7,1 km/h N 13,3 C 28,1 C 4,0 km/h
26.06.2016 19:00 21,2 C 56 % 1015,8 hPa 0,0 l/m 0,0 km/h N-NO 12,1 C 21,2 C 0,0 km/h
26.06.2016 20:00 18,0 C 64 % 1016,5 hPa 0,0 l/m 0,0 km/h O-NO 11,1 C 18,0 C 0,0 km/h
26.06.2016 21:00 16,7 C 70 % 1017,1 hPa 0,0 l/m 0,0 km/h O-SO 11,2 C 16,7 C 0,0 km/h
26.06.2016 22:00 15,1 C 76 % 1017,6 hPa 0,0 l/m 5,2 km/h SO 10,9 C 15,1 C 2,9 km/h
26.06.2016 23:00 13,3 C 80 % 1018,0 hPa 0,0 l/m 0,0 km/h SO 9,9 C 13,3 C 0,0 km/h
Min-Datum _ 20.06.16 23.06.16 25.06.16 - 20.06.16 - 20.06.16 20.06.16 20.06.16
_ Min-Zeit 05:41 18:41 13:41 - 00:41 - 05:41 05:41 00:41
Minimum _ 7,9 C 30 % 1010,4 hPa - 0,0 km/h - 5,7 C 7,9 C 0,0 km/h
Max-Datum _ 23.06.16 20.06.16 20.06.16 25.06.16 21.06.16 - 23.06.16 23.06.16 21.06.16
_ Max-Zeit 17:41 03:41 01:41 01:41 13:41 - 14:41 17:41 13:41
Maximum _ 42,4 C 86 % 1022,5 hPa 11,2 l/m 33,7 km/h
W-SW
- 23,3 C 42,4 C 18,7 km/h
W-SW
Durchschnitt _ 22,2 C 68 % 1017,1 hPa #27,3 l/m 3,3 km/h SO 15,5 C 21,9 C 1,8 km/h
www.sexauwetter.de